Big River (Missouri), Richwoods (07018100)

StateMissouriLatestUnknown (151 cfs)
RiverBig RiverRatingObservedEstimated
Updated2022-09-25 22:00 (36 minutes ago)Flood - The river is flooding. Obstacles can be treacherous or deadly. The river should be avoided at this stage for casual trips and definitely for the inexperienced. Trips should be attempted only with protective gear and equipment.Flood(none)(none)
Discharge151 cfs (median: 142 cfs)High - The river is high and potentially dangerous, especially for the young and / or inexperienced. Normal stream obstacles are sometimes difficult to navigate. Extended distances can be attempted, but canoe travel may not be advisable.High(none)(none)
Height2.21 feetGood - Conditions are ideal for a canoe or kayak. Boats typically will drag on fewer than one-quarter of riffles, if at all, and portages are unnecessary or rare. Normal float lengths can be attempted without a problem.Good(none)(none)
TrendSteady (falling over 24 hours)Low - River is low but can still be floated. Some riffles are okay but most come with significant dragging and might need a portage. Float lengths should be reduced to accommodate low flow, dragging, and portages.Low(none)(none)
USGSExternal icon USGS Site (External icon Duck Duck Go Maps)Poor - River is too low to float comfortably. Most or all riffles will drag or must be portaged and some obstacles (such as slick shelf rock) cause undue problems. Avoid the river at this stage for casual paddling trips.Poor(none)(none)

Trending Data

Plot Image

Trips for Big River (Missouri), Richwoods (07018100)

DateStartEndDistanceConditionDischargeHeightFishingDetails
Click for details2020-07-05 Merrill Horse Browns Ford Total trip distance: 5.5 miles5.5 Good 572 3.79 Poor NoneNone Bray, Matt
Hulsey, Derek
Bray, Matt; Hulsey, Derek
Water was not up but very muddy with visibility under a foot.Water was not up but very muddy with visibility under a foot. USGS Gauge Data:
Richwoods (07018100)
Discharge: 572
Height: 3.79
<b>USGS Gauge Data:</b></br />Richwoods (07018100)<br />Discharge: 572<br />Height: 3.79
Source: BraySource: Bray

A total of 1 rows are displayed.

Trip Summary for Big River (Missouri), Richwoods (07018100)

Miles5.5
Trips1
People2
Dates1
Years1
Months1
Rows1
Sources1

Condition Descriptions

Fishing Conditions

Fish Species

Notes

Classic Trip List

The classic River Trips application is still available for use. It is updated with the new system using a data retrofit. It is no longer maintained. The original River Trips application is no longer updated (as of 1 Dec 2016) but can be checked for errors or for the condition of the data before it was converted to the new system.

Gauge Data Table

ObservationHeightDischargeMaximum
Discharge
Minimum
Discharge
Mean
Discharge
P05P10P20P25P50
(Median)
P75P80P90P95
2022-09-25 22:00 2.21 151 18000 (1993) 46 (1976) 463 63 75 91 96 142 226 274 562 882
2022-09-25 21:30 2.21 151 18000 (1993) 46 (1976) 463 63 75 91 96 142 226 274 562 882
2022-09-25 21:00 2.21 151 18000 (1993) 46 (1976) 463 63 75 91 96 142 226 274 562 882
2022-09-25 20:30 2.22 153 18000 (1993) 46 (1976) 463 63 75 91 96 142 226 274 562 882
2022-09-25 20:00 2.22 153 18000 (1993) 46 (1976) 463 63 75 91 96 142 226 274 562 882
2022-09-25 19:30 2.23 156 18000 (1993) 46 (1976) 463 63 75 91 96 142 226 274 562 882
2022-09-25 19:00 2.22 153 18000 (1993) 46 (1976) 463 63 75 91 96 142 226 274 562 882
2022-09-25 18:30 2.24 158 18000 (1993) 46 (1976) 463 63 75 91 96 142 226 274 562 882
2022-09-25 18:00 2.23 156 18000 (1993) 46 (1976) 463 63 75 91 96 142 226 274 562 882
2022-09-25 17:30 2.24 158 18000 (1993) 46 (1976) 463 63 75 91 96 142 226 274 562 882
2022-09-25 17:00 2.25 160 18000 (1993) 46 (1976) 463 63 75 91 96 142 226 274 562 882
2022-09-25 16:30 2.25 160 18000 (1993) 46 (1976) 463 63 75 91 96 142 226 274 562 882
2022-09-25 16:00 2.26 163 18000 (1993) 46 (1976) 463 63 75 91 96 142 226 274 562 882
2022-09-25 15:30 2.25 160 18000 (1993) 46 (1976) 463 63 75 91 96 142 226 274 562 882
2022-09-25 15:00 2.25 160 18000 (1993) 46 (1976) 463 63 75 91 96 142 226 274 562 882
2022-09-25 14:30 2.25 160 18000 (1993) 46 (1976) 463 63 75 91 96 142 226 274 562 882
2022-09-25 14:00 2.25 160 18000 (1993) 46 (1976) 463 63 75 91 96 142 226 274 562 882
2022-09-25 13:30 2.24 158 18000 (1993) 46 (1976) 463 63 75 91 96 142 226 274 562 882
2022-09-25 13:00 2.25 160 18000 (1993) 46 (1976) 463 63 75 91 96 142 226 274 562 882
2022-09-25 12:30 2.26 163 18000 (1993) 46 (1976) 463 63 75 91 96 142 226 274 562 882
2022-09-25 12:00 2.24 158 18000 (1993) 46 (1976) 463 63 75 91 96 142 226 274 562 882
2022-09-25 11:30 2.25 160 18000 (1993) 46 (1976) 463 63 75 91 96 142 226 274 562 882
2022-09-25 11:00 2.25 160 18000 (1993) 46 (1976) 463 63 75 91 96 142 226 274 562 882
2022-09-25 10:30 2.23 156 18000 (1993) 46 (1976) 463 63 75 91 96 142 226 274 562 882
2022-09-25 10:00 2.24 158 18000 (1993) 46 (1976) 463 63 75 91 96 142 226 274 562 882
2022-09-25 09:30 2.24 158 18000 (1993) 46 (1976) 463 63 75 91 96 142 226 274 562 882
2022-09-25 09:00 2.25 160 18000 (1993) 46 (1976) 463 63 75 91 96 142 226 274 562 882
2022-09-25 08:30 2.24 158 18000 (1993) 46 (1976) 463 63 75 91 96 142 226 274 562 882
2022-09-25 08:00 2.24 158 18000 (1993) 46 (1976) 463 63 75 91 96 142 226 274 562 882
2022-09-25 07:30 2.24 158 18000 (1993) 46 (1976) 463 63 75 91 96 142 226 274 562 882
2022-09-25 07:00 2.23 156 18000 (1993) 46 (1976) 463 63 75 91 96 142 226 274 562 882
2022-09-25 06:30 2.25 160 18000 (1993) 46 (1976) 463 63 75 91 96 142 226 274 562 882
2022-09-25 06:00 2.24 158 18000 (1993) 46 (1976) 463 63 75 91 96 142 226 274 562 882
2022-09-25 05:30 2.24 158 18000 (1993) 46 (1976) 463 63 75 91 96 142 226 274 562 882
2022-09-25 05:00 2.25 160 18000 (1993) 46 (1976) 463 63 75 91 96 142 226 274 562 882
2022-09-25 04:30 2.25 160 18000 (1993) 46 (1976) 463 63 75 91 96 142 226 274 562 882
2022-09-25 04:00 2.25 160 18000 (1993) 46 (1976) 463 63 75 91 96 142 226 274 562 882
2022-09-25 03:30 2.24 158 18000 (1993) 46 (1976) 463 63 75 91 96 142 226 274 562 882
2022-09-25 03:00 2.25 160 18000 (1993) 46 (1976) 463 63 75 91 96 142 226 274 562 882
2022-09-25 02:30 2.25 160 18000 (1993) 46 (1976) 463 63 75 91 96 142 226 274 562 882
2022-09-25 02:00 2.24 158 18000 (1993) 46 (1976) 463 63 75 91 96 142 226 274 562 882
2022-09-25 01:30 2.24 158 18000 (1993) 46 (1976) 463 63 75 91 96 142 226 274 562 882
2022-09-25 01:00 2.25 160 18000 (1993) 46 (1976) 463 63 75 91 96 142 226 274 562 882
2022-09-25 00:30 2.25 160 18000 (1993) 46 (1976) 463 63 75 91 96 142 226 274 562 882
2022-09-25 00:00 2.26 163 18000 (1993) 46 (1976) 463 63 75 91 96 142 226 274 562 882
2022-09-24 23:30 2.25 160 38600 (1993) 44 (1956) 801 53 78 89 96 142 220 269 400 1850
2022-09-24 23:00 2.25 160 38600 (1993) 44 (1956) 801 53 78 89 96 142 220 269 400 1850
2022-09-24 22:30 2.25 160 38600 (1993) 44 (1956) 801 53 78 89 96 142 220 269 400 1850
2022-09-24 22:00 2.25 160 38600 (1993) 44 (1956) 801 53 78 89 96 142 220 269 400 1850
2022-09-24 21:30 2.26 163 38600 (1993) 44 (1956) 801 53 78 89 96 142 220 269 400 1850
2022-09-24 21:00 2.27 165 38600 (1993) 44 (1956) 801 53 78 89 96 142 220 269 400 1850
2022-09-24 20:30 2.26 163 38600 (1993) 44 (1956) 801 53 78 89 96 142 220 269 400 1850
2022-09-24 20:00 2.26 163 38600 (1993) 44 (1956) 801 53 78 89 96 142 220 269 400 1850
2022-09-24 19:30 2.27 165 38600 (1993) 44 (1956) 801 53 78 89 96 142 220 269 400 1850
2022-09-24 19:00 2.26 163 38600 (1993) 44 (1956) 801 53 78 89 96 142 220 269 400 1850
2022-09-24 18:30 2.28 168 38600 (1993) 44 (1956) 801 53 78 89 96 142 220 269 400 1850
2022-09-24 18:00 2.28 168 38600 (1993) 44 (1956) 801 53 78 89 96 142 220 269 400 1850
2022-09-24 17:30 2.28 168 38600 (1993) 44 (1956) 801 53 78 89 96 142 220 269 400 1850
2022-09-24 17:00 2.30 173 38600 (1993) 44 (1956) 801 53 78 89 96 142 220 269 400 1850
2022-09-24 16:30 2.29 170 38600 (1993) 44 (1956) 801 53 78 89 96 142 220 269 400 1850
2022-09-24 16:00 2.30 173 38600 (1993) 44 (1956) 801 53 78 89 96 142 220 269 400 1850
2022-09-24 15:30 2.29 170 38600 (1993) 44 (1956) 801 53 78 89 96 142 220 269 400 1850
2022-09-24 15:00 2.30 173 38600 (1993) 44 (1956) 801 53 78 89 96 142 220 269 400 1850
2022-09-24 14:30 2.29 170 38600 (1993) 44 (1956) 801 53 78 89 96 142 220 269 400 1850
2022-09-24 14:00 2.29 170 38600 (1993) 44 (1956) 801 53 78 89 96 142 220 269 400 1850
2022-09-24 13:30 2.29 170 38600 (1993) 44 (1956) 801 53 78 89 96 142 220 269 400 1850
2022-09-24 13:00 2.29 170 38600 (1993) 44 (1956) 801 53 78 89 96 142 220 269 400 1850
2022-09-24 12:30 2.28 168 38600 (1993) 44 (1956) 801 53 78 89 96 142 220 269 400 1850
2022-09-24 12:00 2.28 168 38600 (1993) 44 (1956) 801 53 78 89 96 142 220 269 400 1850
2022-09-24 11:30 2.28 168 38600 (1993) 44 (1956) 801 53 78 89 96 142 220 269 400 1850
2022-09-24 11:00 2.28 168 38600 (1993) 44 (1956) 801 53 78 89 96 142 220 269 400 1850
2022-09-24 10:30 2.28 168 38600 (1993) 44 (1956) 801 53 78 89 96 142 220 269 400 1850
2022-09-24 10:00 2.28 168 38600 (1993) 44 (1956) 801 53 78 89 96 142 220 269 400 1850
2022-09-24 09:30 2.28 168 38600 (1993) 44 (1956) 801 53 78 89 96 142 220 269 400 1850
2022-09-24 09:00 2.28 168 38600 (1993) 44 (1956) 801 53 78 89 96 142 220 269 400 1850
2022-09-24 08:30 2.28 168 38600 (1993) 44 (1956) 801 53 78 89 96 142 220 269 400 1850
2022-09-24 08:00 2.28 168 38600 (1993) 44 (1956) 801 53 78 89 96 142 220 269 400 1850
2022-09-24 07:30 2.29 170 38600 (1993) 44 (1956) 801 53 78 89 96 142 220 269 400 1850
2022-09-24 07:00 2.30 173 38600 (1993) 44 (1956) 801 53 78 89 96 142 220 269 400 1850
2022-09-24 06:30 2.30 173 38600 (1993) 44 (1956) 801 53 78 89 96 142 220 269 400 1850
2022-09-24 06:00 2.29 170 38600 (1993) 44 (1956) 801 53 78 89 96 142 220 269 400 1850
2022-09-24 05:30 2.31 175 38600 (1993) 44 (1956) 801 53 78 89 96 142 220 269 400 1850
2022-09-24 05:00 2.30 173 38600 (1993) 44 (1956) 801 53 78 89 96 142 220 269 400 1850
2022-09-24 04:30 2.31 175 38600 (1993) 44 (1956) 801 53 78 89 96 142 220 269 400 1850
2022-09-24 04:00 2.31 175 38600 (1993) 44 (1956) 801 53 78 89 96 142 220 269 400 1850
2022-09-24 03:30 2.31 175 38600 (1993) 44 (1956) 801 53 78 89 96 142 220 269 400 1850
2022-09-24 03:00 2.32 178 38600 (1993) 44 (1956) 801 53 78 89 96 142 220 269 400 1850
2022-09-24 02:30 2.33 180 38600 (1993) 44 (1956) 801 53 78 89 96 142 220 269 400 1850
2022-09-24 02:00 2.33 180 38600 (1993) 44 (1956) 801 53 78 89 96 142 220 269 400 1850
2022-09-24 01:30 2.33 180 38600 (1993) 44 (1956) 801 53 78 89 96 142 220 269 400 1850
2022-09-24 01:00 2.32 178 38600 (1993) 44 (1956) 801 53 78 89 96 142 220 269 400 1850
2022-09-24 00:30 2.33 180 38600 (1993) 44 (1956) 801 53 78 89 96 142 220 269 400 1850
2022-09-24 00:00 2.34 183 38600 (1993) 44 (1956) 801 53 78 89 96 142 220 269 400 1850
2022-09-23 23:30 2.34 183 30600 (1993) 32 (1956) 751 52 81 93 100 167 247 293 508 2350
2022-09-23 23:00 2.35 185 30600 (1993) 32 (1956) 751 52 81 93 100 167 247 293 508 2350
2022-09-23 22:30 2.35 185 30600 (1993) 32 (1956) 751 52 81 93 100 167 247 293 508 2350
2022-09-23 22:00 2.36 188 30600 (1993) 32 (1956) 751 52 81 93 100 167 247 293 508 2350
2022-09-23 21:30 2.36 188 30600 (1993) 32 (1956) 751 52 81 93 100 167 247 293 508 2350
2022-09-23 21:00 2.37 190 30600 (1993) 32 (1956) 751 52 81 93 100 167 247 293 508 2350
2022-09-23 20:30 2.37 190 30600 (1993) 32 (1956) 751 52 81 93 100 167 247 293 508 2350
2022-09-23 20:00 2.38 193 30600 (1993) 32 (1956) 751 52 81 93 100 167 247 293 508 2350
2022-09-23 19:30 2.38 193 30600 (1993) 32 (1956) 751 52 81 93 100 167 247 293 508 2350
2022-09-23 19:00 2.39 195 30600 (1993) 32 (1956) 751 52 81 93 100 167 247 293 508 2350
2022-09-23 18:30 2.39 195 30600 (1993) 32 (1956) 751 52 81 93 100 167 247 293 508 2350
2022-09-23 18:00 2.40 198 30600 (1993) 32 (1956) 751 52 81 93 100 167 247 293 508 2350
2022-09-23 17:30 2.40 198 30600 (1993) 32 (1956) 751 52 81 93 100 167 247 293 508 2350
2022-09-23 17:00 2.40 198 30600 (1993) 32 (1956) 751 52 81 93 100 167 247 293 508 2350
2022-09-23 16:30 2.41 200 30600 (1993) 32 (1956) 751 52 81 93 100 167 247 293 508 2350
2022-09-23 16:00 2.42 203 30600 (1993) 32 (1956) 751 52 81 93 100 167 247 293 508 2350
2022-09-23 15:30 2.43 205 30600 (1993) 32 (1956) 751 52 81 93 100 167 247 293 508 2350
2022-09-23 15:00 2.43 205 30600 (1993) 32 (1956) 751 52 81 93 100 167 247 293 508 2350
2022-09-23 14:30 2.42 203 30600 (1993) 32 (1956) 751 52 81 93 100 167 247 293 508 2350
2022-09-23 14:00 2.44 208 30600 (1993) 32 (1956) 751 52 81 93 100 167 247 293 508 2350
2022-09-23 13:30 2.43 205 30600 (1993) 32 (1956) 751 52 81 93 100 167 247 293 508 2350
2022-09-23 13:00 2.43 205 30600 (1993) 32 (1956) 751 52 81 93 100 167 247 293 508 2350
2022-09-23 12:30 2.44 208 30600 (1993) 32 (1956) 751 52 81 93 100 167 247 293 508 2350
2022-09-23 12:00 2.43 205 30600 (1993) 32 (1956) 751 52 81 93 100 167 247 293 508 2350
2022-09-23 11:30 2.43 205 30600 (1993) 32 (1956) 751 52 81 93 100 167 247 293 508 2350
2022-09-23 11:00 2.43 205 30600 (1993) 32 (1956) 751 52 81 93 100 167 247 293 508 2350
2022-09-23 10:30 2.44 208 30600 (1993) 32 (1956) 751 52 81 93 100 167 247 293 508 2350
2022-09-23 10:00 2.42 203 30600 (1993) 32 (1956) 751 52 81 93 100 167 247 293 508 2350
2022-09-23 09:30 2.43 205 30600 (1993) 32 (1956) 751 52 81 93 100 167 247 293 508 2350
2022-09-23 09:00 2.42 203 30600 (1993) 32 (1956) 751 52 81 93 100 167 247 293 508 2350
2022-09-23 08:30 2.43 205 30600 (1993) 32 (1956) 751 52 81 93 100 167 247 293 508 2350
2022-09-23 08:00 2.42 203 30600 (1993) 32 (1956) 751 52 81 93 100 167 247 293 508 2350
2022-09-23 07:30 2.43 205 30600 (1993) 32 (1956) 751 52 81 93 100 167 247 293 508 2350
2022-09-23 07:00 2.41 200 30600 (1993) 32 (1956) 751 52 81 93 100 167 247 293 508 2350
2022-09-23 06:30 2.42 203 30600 (1993) 32 (1956) 751 52 81 93 100 167 247 293 508 2350
2022-09-23 06:00 2.41 200 30600 (1993) 32 (1956) 751 52 81 93 100 167 247 293 508 2350
2022-09-23 05:30 2.43 205 30600 (1993) 32 (1956) 751 52 81 93 100 167 247 293 508 2350
2022-09-23 05:00 2.42 203 30600 (1993) 32 (1956) 751 52 81 93 100 167 247 293 508 2350
2022-09-23 04:30 2.43 205 30600 (1993) 32 (1956) 751 52 81 93 100 167 247 293 508 2350
2022-09-23 04:00 2.42 203 30600 (1993) 32 (1956) 751 52 81 93 100 167 247 293 508 2350
2022-09-23 03:30 2.42 203 30600 (1993) 32 (1956) 751 52 81 93 100 167 247 293 508 2350
2022-09-23 03:00 2.43 205 30600 (1993) 32 (1956) 751 52 81 93 100 167 247 293 508 2350
2022-09-23 02:30 2.42 203 30600 (1993) 32 (1956) 751 52 81 93 100 167 247 293 508 2350
2022-09-23 02:00 2.42 203 30600 (1993) 32 (1956) 751 52 81 93 100 167 247 293 508 2350
2022-09-23 01:30 2.42 203 30600 (1993) 32 (1956) 751 52 81 93 100 167 247 293 508 2350
2022-09-23 01:00 2.42 203 30600 (1993) 32 (1956) 751 52 81 93 100 167 247 293 508 2350
2022-09-23 00:30 2.41 200 30600 (1993) 32 (1956) 751 52 81 93 100 167 247 293 508 2350
2022-09-23 00:00 2.40 198 30600 (1993) 32 (1956) 751 52 81 93 100 167 247 293 508 2350
2022-09-22 23:30 2.39 195 3690 (1950) 28 (1955) 305 46 82 92 98 161 277 328 506 1230
2022-09-22 23:00 2.39 195 3690 (1950) 28 (1955) 305 46 82 92 98 161 277 328 506 1230
2022-09-22 22:30 2.38 193 3690 (1950) 28 (1955) 305 46 82 92 98 161 277 328 506 1230
2022-09-22 22:00 2.37 190 3690 (1950) 28 (1955) 305 46 82 92 98 161 277 328 506 1230
2022-09-22 21:30 2.36 188 3690 (1950) 28 (1955) 305 46 82 92 98 161 277 328 506 1230
2022-09-22 21:00 2.37 190 3690 (1950) 28 (1955) 305 46 82 92 98 161 277 328 506 1230
2022-09-22 20:30 2.35 185 3690 (1950) 28 (1955) 305 46 82 92 98 161 277 328 506 1230
2022-09-22 20:00 2.34 183 3690 (1950) 28 (1955) 305 46 82 92 98 161 277 328 506 1230
2022-09-22 19:30 2.34 183 3690 (1950) 28 (1955) 305 46 82 92 98 161 277 328 506 1230
2022-09-22 19:00 2.32 178 3690 (1950) 28 (1955) 305 46 82 92 98 161 277 328 506 1230
2022-09-22 18:30 2.33 180 3690 (1950) 28 (1955) 305 46 82 92 98 161 277 328 506 1230
2022-09-22 18:00 2.31 175 3690 (1950) 28 (1955) 305 46 82 92 98 161 277 328 506 1230
2022-09-22 17:30 2.31 175 3690 (1950) 28 (1955) 305 46 82 92 98 161 277 328 506 1230
2022-09-22 17:00 2.31 175 3690 (1950) 28 (1955) 305 46 82 92 98 161 277 328 506 1230
2022-09-22 16:30 2.29 170 3690 (1950) 28 (1955) 305 46 82 92 98 161 277 328 506 1230
2022-09-22 16:00 2.28 168 3690 (1950) 28 (1955) 305 46 82 92 98 161 277 328 506 1230
2022-09-22 15:30 2.28 168 3690 (1950) 28 (1955) 305 46 82 92 98 161 277 328 506 1230
2022-09-22 15:00 2.26 163 3690 (1950) 28 (1955) 305 46 82 92 98 161 277 328 506 1230
2022-09-22 14:30 2.26 163 3690 (1950) 28 (1955) 305 46 82 92 98 161 277 328 506 1230
2022-09-22 14:00 2.24 158 3690 (1950) 28 (1955) 305 46 82 92 98 161 277 328 506 1230
2022-09-22 13:30 2.23 156 3690 (1950) 28 (1955) 305 46 82 92 98 161 277 328 506 1230
2022-09-22 13:00 2.24 158 3690 (1950) 28 (1955) 305 46 82 92 98 161 277 328 506 1230
2022-09-22 12:30 2.21 151 3690 (1950) 28 (1955) 305 46 82 92 98 161 277 328 506 1230
2022-09-22 12:00 2.21 151 3690 (1950) 28 (1955) 305 46 82 92 98 161 277 328 506 1230
2022-09-22 11:30 2.19 146 3690 (1950) 28 (1955) 305 46 82 92 98 161 277 328 506 1230
2022-09-22 11:00 2.17 141 3690 (1950) 28 (1955) 305 46 82 92 98 161 277 328 506 1230
2022-09-22 10:30 2.17 141 3690 (1950) 28 (1955) 305 46 82 92 98 161 277 328 506 1230
2022-09-22 10:00 2.16 139 3690 (1950) 28 (1955) 305 46 82 92 98 161 277 328 506 1230
2022-09-22 09:30 2.15 137 3690 (1950) 28 (1955) 305 46 82 92 98 161 277 328 506 1230
2022-09-22 09:00 2.14 134 3690 (1950) 28 (1955) 305 46 82 92 98 161 277 328 506 1230
2022-09-22 08:30 2.14 134 3690 (1950) 28 (1955) 305 46 82 92 98 161 277 328 506 1230
2022-09-22 08:00 2.15 137 3690 (1950) 28 (1955) 305 46 82 92 98 161 277 328 506 1230
2022-09-22 07:30 2.14 134 3690 (1950) 28 (1955) 305 46 82 92 98 161 277 328 506 1230
2022-09-22 07:00 2.14 134 3690 (1950) 28 (1955) 305 46 82 92 98 161 277 328 506 1230
2022-09-22 06:30 2.14 134 3690 (1950) 28 (1955) 305 46 82 92 98 161 277 328 506 1230
2022-09-22 06:00 2.14 134 3690 (1950) 28 (1955) 305 46 82 92 98 161 277 328 506 1230
2022-09-22 05:30 2.14 134 3690 (1950) 28 (1955) 305 46 82 92 98 161 277 328 506 1230
2022-09-22 05:00 2.13 132 3690 (1950) 28 (1955) 305 46 82 92 98 161 277 328 506 1230
2022-09-22 04:30 2.14 134 3690 (1950) 28 (1955) 305 46 82 92 98 161 277 328 506 1230
2022-09-22 04:00 2.14 134 3690 (1950) 28 (1955) 305 46 82 92 98 161 277 328 506 1230
2022-09-22 03:30 2.14 134 3690 (1950) 28 (1955) 305 46 82 92 98 161 277 328 506 1230
2022-09-22 03:00 2.14 134 3690 (1950) 28 (1955) 305 46 82 92 98 161 277 328 506 1230
2022-09-22 02:30 2.14 134 3690 (1950) 28 (1955) 305 46 82 92 98 161 277 328 506 1230
2022-09-22 02:00 2.13 132 3690 (1950) 28 (1955) 305 46 82 92 98 161 277 328 506 1230
2022-09-22 01:30 2.14 134 3690 (1950) 28 (1955) 305 46 82 92 98 161 277 328 506 1230
2022-09-22 01:00 2.14 134 3690 (1950) 28 (1955) 305 46 82 92 98 161 277 328 506 1230
2022-09-22 00:30 2.13 132 3690 (1950) 28 (1955) 305 46 82 92 98 161 277 328 506 1230
2022-09-22 00:00 2.15 137 3690 (1950) 28 (1955) 305 46 82 92 98 161 277 328 506 1230
2022-09-21 23:30 2.13 132 6280 (1950) 34 (1956) 336 46 79 93 101 141 240 337 530 1060
2022-09-21 23:00 2.14 134 6280 (1950) 34 (1956) 336 46 79 93 101 141 240 337 530 1060
2022-09-21 22:30 2.14 134 6280 (1950) 34 (1956) 336 46 79 93 101 141 240 337 530 1060
2022-09-21 22:00 2.15 137 6280 (1950) 34 (1956) 336 46 79 93 101 141 240 337 530 1060
2022-09-21 21:30 2.13 132 6280 (1950) 34 (1956) 336 46 79 93 101 141 240 337 530 1060
2022-09-21 21:00 2.14 134 6280 (1950) 34 (1956) 336 46 79 93 101 141 240 337 530 1060
2022-09-21 20:30 2.13 132 6280 (1950) 34 (1956) 336 46 79 93 101 141 240 337 530 1060
2022-09-21 20:00 2.15 137 6280 (1950) 34 (1956) 336 46 79 93 101 141 240 337 530 1060
2022-09-21 19:30 2.14 134 6280 (1950) 34 (1956) 336 46 79 93 101 141 240 337 530 1060
2022-09-21 19:00 2.16 139 6280 (1950) 34 (1956) 336 46 79 93 101 141 240 337 530 1060
2022-09-21 18:30 2.14 134 6280 (1950) 34 (1956) 336 46 79 93 101 141 240 337 530 1060
2022-09-21 18:00 2.16 139 6280 (1950) 34 (1956) 336 46 79 93 101 141 240 337 530 1060
2022-09-21 17:30 2.15 137 6280 (1950) 34 (1956) 336 46 79 93 101 141 240 337 530 1060
2022-09-21 17:00 2.16 139 6280 (1950) 34 (1956) 336 46 79 93 101 141 240 337 530 1060
2022-09-21 16:30 2.16 139 6280 (1950) 34 (1956) 336 46 79 93 101 141 240 337 530 1060
2022-09-21 16:00 2.16 139 6280 (1950) 34 (1956) 336 46 79 93 101 141 240 337 530 1060
2022-09-21 15:30 2.16 139 6280 (1950) 34 (1956) 336 46 79 93 101 141 240 337 530 1060
2022-09-21 15:00 2.16 139 6280 (1950) 34 (1956) 336 46 79 93 101 141 240 337 530 1060
2022-09-21 14:30 2.16 139 6280 (1950) 34 (1956) 336 46 79 93 101 141 240 337 530 1060
2022-09-21 14:00 2.15 137 6280 (1950) 34 (1956) 336 46 79 93 101 141 240 337 530 1060
2022-09-21 13:30 2.16 139 6280 (1950) 34 (1956) 336 46 79 93 101 141 240 337 530 1060
2022-09-21 13:00 2.16 139 6280 (1950) 34 (1956) 336 46 79 93 101 141 240 337 530 1060
2022-09-21 12:30 2.15 137 6280 (1950) 34 (1956) 336 46 79 93 101 141 240 337 530 1060
2022-09-21 12:00 2.16 139 6280 (1950) 34 (1956) 336 46 79 93 101 141 240 337 530 1060
2022-09-21 11:30 2.16 139 6280 (1950) 34 (1956) 336 46 79 93 101 141 240 337 530 1060
2022-09-21 11:00 2.16 139 6280 (1950) 34 (1956) 336 46 79 93 101 141 240 337 530 1060
2022-09-21 10:30 2.15 137 6280 (1950) 34 (1956) 336 46 79 93 101 141 240 337 530 1060
2022-09-21 10:00 2.15 137 6280 (1950) 34 (1956) 336 46 79 93 101 141 240 337 530 1060
2022-09-21 09:30 2.15 137 6280 (1950) 34 (1956) 336 46 79 93 101 141 240 337 530 1060
2022-09-21 09:00 2.14 134 6280 (1950) 34 (1956) 336 46 79 93 101 141 240 337 530 1060
2022-09-21 08:30 2.15 137 6280 (1950) 34 (1956) 336 46 79 93 101 141 240 337 530 1060
2022-09-21 08:00 2.14 134 6280 (1950) 34 (1956) 336 46 79 93 101 141 240 337 530 1060
2022-09-21 07:30 2.14 134 6280 (1950) 34 (1956) 336 46 79 93 101 141 240 337 530 1060
2022-09-21 07:00 2.14 134 6280 (1950) 34 (1956) 336 46 79 93 101 141 240 337 530 1060
2022-09-21 06:30 2.15 137 6280 (1950) 34 (1956) 336 46 79 93 101 141 240 337 530 1060
2022-09-21 06:00 2.14 134 6280 (1950) 34 (1956) 336 46 79 93 101 141 240 337 530 1060
2022-09-21 05:30 2.16 139 6280 (1950) 34 (1956) 336 46 79 93 101 141 240 337 530 1060
2022-09-21 05:00 2.16 139 6280 (1950) 34 (1956) 336 46 79 93 101 141 240 337 530 1060
2022-09-21 04:30 2.15 137 6280 (1950) 34 (1956) 336 46 79 93 101 141 240 337 530 1060
2022-09-21 04:00 2.16 139 6280 (1950) 34 (1956) 336 46 79 93 101 141 240 337 530 1060
2022-09-21 03:30 2.16 139 6280 (1950) 34 (1956) 336 46 79 93 101 141 240 337 530 1060
2022-09-21 03:00 2.15 137 6280 (1950) 34 (1956) 336 46 79 93 101 141 240 337 530 1060
2022-09-21 02:30 2.14 134 6280 (1950) 34 (1956) 336 46 79 93 101 141 240 337 530 1060
2022-09-21 02:00 2.15 137 6280 (1950) 34 (1956) 336 46 79 93 101 141 240 337 530 1060
2022-09-21 01:30 2.15 137 6280 (1950) 34 (1956) 336 46 79 93 101 141 240 337 530 1060
2022-09-21 01:00 2.15 137 6280 (1950) 34 (1956) 336 46 79 93 101 141 240 337 530 1060
2022-09-21 00:30 2.17 141 6280 (1950) 34 (1956) 336 46 79 93 101 141 240 337 530 1060
2022-09-21 00:00 2.15 137 6280 (1950) 34 (1956) 336 46 79 93 101 141 240 337 530 1060
2022-09-20 23:30 2.16 139 1110 (1975) 39 (1955) 223 46 75 92 99 138 244 272 531 763
2022-09-20 23:00 2.17 141 1110 (1975) 39 (1955) 223 46 75 92 99 138 244 272 531 763
2022-09-20 22:30 2.16 139 1110 (1975) 39 (1955) 223 46 75 92 99 138 244 272 531 763
2022-09-20 22:00 2.15 137 1110 (1975) 39 (1955) 223 46 75 92 99 138 244 272 531 763
2022-09-20 21:30 2.15 137 1110 (1975) 39 (1955) 223 46 75 92 99 138 244 272 531 763
2022-09-20 21:00 2.15 137 1110 (1975) 39 (1955) 223 46 75 92 99 138 244 272 531 763
2022-09-20 20:30 2.16 139 1110 (1975) 39 (1955) 223 46 75 92 99 138 244 272 531 763
2022-09-20 20:00 2.16 139 1110 (1975) 39 (1955) 223 46 75 92 99 138 244 272 531 763
2022-09-20 19:30 2.17 141 1110 (1975) 39 (1955) 223 46 75 92 99 138 244 272 531 763
2022-09-20 19:00 2.17 141 1110 (1975) 39 (1955) 223 46 75 92 99 138 244 272 531 763
2022-09-20 18:30 2.17 141 1110 (1975) 39 (1955) 223 46 75 92 99 138 244 272 531 763
2022-09-20 18:00 2.18 144 1110 (1975) 39 (1955) 223 46 75 92 99 138 244 272 531 763
2022-09-20 17:30 2.18 144 1110 (1975) 39 (1955) 223 46 75 92 99 138 244 272 531 763
2022-09-20 17:00 2.18 144 1110 (1975) 39 (1955) 223 46 75 92 99 138 244 272 531 763
2022-09-20 16:30 2.18 144 1110 (1975) 39 (1955) 223 46 75 92 99 138 244 272 531 763
2022-09-20 16:00 2.19 146 1110 (1975) 39 (1955) 223 46 75 92 99 138 244 272 531 763
2022-09-20 15:30 2.19 146 1110 (1975) 39 (1955) 223 46 75 92 99 138 244 272 531 763
2022-09-20 15:00 2.19 146 1110 (1975) 39 (1955) 223 46 75 92 99 138 244 272 531 763
2022-09-20 14:30 2.19 146 1110 (1975) 39 (1955) 223 46 75 92 99 138 244 272 531 763
2022-09-20 14:00 2.18 144 1110 (1975) 39 (1955) 223 46 75 92 99 138 244 272 531 763
2022-09-20 13:30 2.19 146 1110 (1975) 39 (1955) 223 46 75 92 99 138 244 272 531 763
2022-09-20 13:00 2.18 144 1110 (1975) 39 (1955) 223 46 75 92 99 138 244 272 531 763
2022-09-20 12:30 2.18 144 1110 (1975) 39 (1955) 223 46 75 92 99 138 244 272 531 763
2022-09-20 12:00 2.17 141 1110 (1975) 39 (1955) 223 46 75 92 99 138 244 272 531 763
2022-09-20 11:30 2.17 141 1110 (1975) 39 (1955) 223 46 75 92 99 138 244 272 531 763
2022-09-20 11:00 2.18 144 1110 (1975) 39 (1955) 223 46 75 92 99 138 244 272 531 763
2022-09-20 10:30 2.18 144 1110 (1975) 39 (1955) 223 46 75 92 99 138 244 272 531 763
2022-09-20 10:00 2.18 144 1110 (1975) 39 (1955) 223 46 75 92 99 138 244 272 531 763
2022-09-20 09:30 2.17 141 1110 (1975) 39 (1955) 223 46 75 92 99 138 244 272 531 763
2022-09-20 09:00 2.18 144 1110 (1975) 39 (1955) 223 46 75 92 99 138 244 272 531 763
2022-09-20 08:30 2.18 144 1110 (1975) 39 (1955) 223 46 75 92 99 138 244 272 531 763
2022-09-20 08:00 2.17 141 1110 (1975) 39 (1955) 223 46 75 92 99 138 244 272 531 763
2022-09-20 07:30 2.18 144 1110 (1975) 39 (1955) 223 46 75 92 99 138 244 272 531 763
2022-09-20 07:00 2.16 139 1110 (1975) 39 (1955) 223 46 75 92 99 138 244 272 531 763
2022-09-20 06:30 2.18 144 1110 (1975) 39 (1955) 223 46 75 92 99 138 244 272 531 763
2022-09-20 06:00 2.17 141 1110 (1975) 39 (1955) 223 46 75 92 99 138 244 272 531 763
2022-09-20 05:30 2.16 139 1110 (1975) 39 (1955) 223 46 75 92 99 138 244 272 531 763
2022-09-20 05:00 2.17 141 1110 (1975) 39 (1955) 223 46 75 92 99 138 244 272 531 763
2022-09-20 04:30 2.17 141 1110 (1975) 39 (1955) 223 46 75 92 99 138 244 272 531 763
2022-09-20 04:00 2.18 144 1110 (1975) 39 (1955) 223 46 75 92 99 138 244 272 531 763
2022-09-20 03:30 2.18 144 1110 (1975) 39 (1955) 223 46 75 92 99 138 244 272 531 763
2022-09-20 03:00 2.17 141 1110 (1975) 39 (1955) 223 46 75 92 99 138 244 272 531 763
2022-09-20 02:30 2.18 144 1110 (1975) 39 (1955) 223 46 75 92 99 138 244 272 531 763
2022-09-20 02:00 2.17 141 1110 (1975) 39 (1955) 223 46 75 92 99 138 244 272 531 763
2022-09-20 01:30 2.18 144 1110 (1975) 39 (1955) 223 46 75 92 99 138 244 272 531 763
2022-09-20 01:00 2.17 141 1110 (1975) 39 (1955) 223 46 75 92 99 138 244 272 531 763
2022-09-20 00:30 2.18 144 1110 (1975) 39 (1955) 223 46 75 92 99 138 244 272 531 763
2022-09-20 00:00 2.19 146 1110 (1975) 39 (1955) 223 46 75 92 99 138 244 272 531 763
2022-09-19 23:30 2.17 141 2330 (1970) 22 (1954) 278 45 71 93 96 136 272 304 617 1390
2022-09-19 23:00 2.18 144 2330 (1970) 22 (1954) 278 45 71 93 96 136 272 304 617 1390
2022-09-19 22:30 2.19 146 2330 (1970) 22 (1954) 278 45 71 93 96 136 272 304 617 1390
2022-09-19 22:00 2.18 144 2330 (1970) 22 (1954) 278 45 71 93 96 136 272 304 617 1390
2022-09-19 21:30 2.18 144 2330 (1970) 22 (1954) 278 45 71 93 96 136 272 304 617 1390
2022-09-19 21:00 2.20 148 2330 (1970) 22 (1954) 278 45 71 93 96 136 272 304 617 1390
2022-09-19 20:30 2.18 144 2330 (1970) 22 (1954) 278 45 71 93 96 136 272 304 617 1390
2022-09-19 20:00 2.19 146 2330 (1970) 22 (1954) 278 45 71 93 96 136 272 304 617 1390
2022-09-19 19:30 2.20 148 2330 (1970) 22 (1954) 278 45 71 93 96 136 272 304 617 1390
2022-09-19 19:00 2.19 146 2330 (1970) 22 (1954) 278 45 71 93 96 136 272 304 617 1390
2022-09-19 18:30 2.19 146 2330 (1970) 22 (1954) 278 45 71 93 96 136 272 304 617 1390
2022-09-19 18:00 2.20 148 2330 (1970) 22 (1954) 278 45 71 93 96 136 272 304 617 1390
2022-09-19 17:30 2.21 151 2330 (1970) 22 (1954) 278 45 71 93 96 136 272 304 617 1390
2022-09-19 17:00 2.21 151 2330 (1970) 22 (1954) 278 45 71 93 96 136 272 304 617 1390
2022-09-19 16:30 2.22 153 2330 (1970) 22 (1954) 278 45 71 93 96 136 272 304 617 1390
2022-09-19 16:00 2.21 151 2330 (1970) 22 (1954) 278 45 71 93 96 136 272 304 617 1390
2022-09-19 15:30 2.22 153 2330 (1970) 22 (1954) 278 45 71 93 96 136 272 304 617 1390
2022-09-19 15:00 2.20 148 2330 (1970) 22 (1954) 278 45 71 93 96 136 272 304 617 1390
2022-09-19 14:30 2.21 151 2330 (1970) 22 (1954) 278 45 71 93 96 136 272 304 617 1390
2022-09-19 14:00 2.21 151 2330 (1970) 22 (1954) 278 45 71 93 96 136 272 304 617 1390
2022-09-19 13:30 2.20 148 2330 (1970) 22 (1954) 278 45 71 93 96 136 272 304 617 1390
2022-09-19 13:00 2.20 148 2330 (1970) 22 (1954) 278 45 71 93 96 136 272 304 617 1390
2022-09-19 12:30 2.20 148 2330 (1970) 22 (1954) 278 45 71 93 96 136 272 304 617 1390
2022-09-19 12:00 2.20 148 2330 (1970) 22 (1954) 278 45 71 93 96 136 272 304 617 1390
2022-09-19 11:30 2.19 146 2330 (1970) 22 (1954) 278 45 71 93 96 136 272 304 617 1390
2022-09-19 11:00 2.20 148 2330 (1970) 22 (1954) 278 45 71 93 96 136 272 304 617 1390
2022-09-19 10:30 2.19 146 2330 (1970) 22 (1954) 278 45 71 93 96 136 272 304 617 1390
2022-09-19 10:00 2.19 146 2330 (1970) 22 (1954) 278 45 71 93 96 136 272 304 617 1390
2022-09-19 09:30 2.20 148 2330 (1970) 22 (1954) 278 45 71 93 96 136 272 304 617 1390
2022-09-19 09:00 2.19 146 2330 (1970) 22 (1954) 278 45 71 93 96 136 272 304 617 1390
2022-09-19 08:30 2.20 148 2330 (1970) 22 (1954) 278 45 71 93 96 136 272 304 617 1390
2022-09-19 08:00 2.19 146 2330 (1970) 22 (1954) 278 45 71 93 96 136 272 304 617 1390
2022-09-19 07:30 2.19 146 2330 (1970) 22 (1954) 278 45 71 93 96 136 272 304 617 1390
2022-09-19 07:00 2.19 146 2330 (1970) 22 (1954) 278 45 71 93 96 136 272 304 617 1390
2022-09-19 06:30 2.20 148 2330 (1970) 22 (1954) 278 45 71 93 96 136 272 304 617 1390
2022-09-19 06:00 2.19 146 2330 (1970) 22 (1954) 278 45 71 93 96 136 272 304 617 1390
2022-09-19 05:30 2.19 146 2330 (1970) 22 (1954) 278 45 71 93 96 136 272 304 617 1390
2022-09-19 05:00 2.20 148 2330 (1970) 22 (1954) 278 45 71 93 96 136 272 304 617 1390
2022-09-19 04:30 2.20 148 2330 (1970) 22 (1954) 278 45 71 93 96 136 272 304 617 1390
2022-09-19 04:00 2.19 146 2330 (1970) 22 (1954) 278 45 71 93 96 136 272 304 617 1390
2022-09-19 03:30 2.19 146 2330 (1970) 22 (1954) 278 45 71 93 96 136 272 304 617 1390
2022-09-19 03:00 2.19 146 2330 (1970) 22 (1954) 278 45 71 93 96 136 272 304 617 1390
2022-09-19 02:30 2.19 146 2330 (1970) 22 (1954) 278 45 71 93 96 136 272 304 617 1390
2022-09-19 02:00 2.19 146 2330 (1970) 22 (1954) 278 45 71 93 96 136 272 304 617 1390
2022-09-19 01:30 2.19 146 2330 (1970) 22 (1954) 278 45 71 93 96 136 272 304 617 1390
2022-09-19 01:00 2.20 148 2330 (1970) 22 (1954) 278 45 71 93 96 136 272 304 617 1390
2022-09-19 00:30 2.20 148 2330 (1970) 22 (1954) 278 45 71 93 96 136 272 304 617 1390
2022-09-19 00:00 2.19 146 2330 (1970) 22 (1954) 278 45 71 93 96 136 272 304 617 1390
2022-09-18 23:30 2.19 146 3140 (2016) 25 (1954) 278 43 75 90 91 138 292 341 534 1110
2022-09-18 23:00 2.20 148 3140 (2016) 25 (1954) 278 43 75 90 91 138 292 341 534 1110
2022-09-18 22:30 2.19 146 3140 (2016) 25 (1954) 278 43 75 90 91 138 292 341 534 1110
2022-09-18 22:00 2.20 148 3140 (2016) 25 (1954) 278 43 75 90 91 138 292 341 534 1110
2022-09-18 21:30 2.21 151 3140 (2016) 25 (1954) 278 43 75 90 91 138 292 341 534 1110
2022-09-18 21:00 2.21 151 3140 (2016) 25 (1954) 278 43 75 90 91 138 292 341 534 1110
2022-09-18 20:30 2.19 146 3140 (2016) 25 (1954) 278 43 75 90 91 138 292 341 534 1110
2022-09-18 20:00 2.20 148 3140 (2016) 25 (1954) 278 43 75 90 91 138 292 341 534 1110
2022-09-18 19:30 2.20 148 3140 (2016) 25 (1954) 278 43 75 90 91 138 292 341 534 1110
2022-09-18 19:00 2.20 148 3140 (2016) 25 (1954) 278 43 75 90 91 138 292 341 534 1110
2022-09-18 18:30 2.20 148 3140 (2016) 25 (1954) 278 43 75 90 91 138 292 341 534 1110
2022-09-18 18:00 2.21 151 3140 (2016) 25 (1954) 278 43 75 90 91 138 292 341 534 1110
2022-09-18 17:30 2.21 151 3140 (2016) 25 (1954) 278 43 75 90 91 138 292 341 534 1110
2022-09-18 17:00 2.20 148 3140 (2016) 25 (1954) 278 43 75 90 91 138 292 341 534 1110
2022-09-18 16:30 2.20 148 3140 (2016) 25 (1954) 278 43 75 90 91 138 292 341 534 1110
2022-09-18 16:00 2.20 148 3140 (2016) 25 (1954) 278 43 75 90 91 138 292 341 534 1110
2022-09-18 15:30 2.20 148 3140 (2016) 25 (1954) 278 43 75 90 91 138 292 341 534 1110
2022-09-18 15:00 2.20 148 3140 (2016) 25 (1954) 278 43 75 90 91 138 292 341 534 1110
2022-09-18 14:30 2.19 146 3140 (2016) 25 (1954) 278 43 75 90 91 138 292 341 534 1110
2022-09-18 14:00 2.20 148 3140 (2016) 25 (1954) 278 43 75 90 91 138 292 341 534 1110
2022-09-18 13:30 2.19 146 3140 (2016) 25 (1954) 278 43 75 90 91 138 292 341 534 1110
2022-09-18 13:00 2.20 148 3140 (2016) 25 (1954) 278 43 75 90 91 138 292 341 534 1110
2022-09-18 12:00 2.20 148 3140 (2016) 25 (1954) 278 43 75 90 91 138 292 341 534 1110
2022-09-18 11:30 2.20 148 3140 (2016) 25 (1954) 278 43 75 90 91 138 292 341 534 1110
2022-09-18 10:30 2.20 148 3140 (2016) 25 (1954) 278 43 75 90 91 138 292 341 534 1110
2022-09-18 10:00 2.18 144 3140 (2016) 25 (1954) 278 43 75 90 91 138 292 341 534 1110
2022-09-18 09:30 2.17 141 3140 (2016) 25 (1954) 278 43 75 90 91 138 292 341 534 1110
2022-09-18 09:00 2.18 144 3140 (2016) 25 (1954) 278 43 75 90 91 138 292 341 534 1110
2022-09-18 08:30 2.18 144 3140 (2016) 25 (1954) 278 43 75 90 91 138 292 341 534 1110
2022-09-18 08:00 2.18 144 3140 (2016) 25 (1954) 278 43 75 90 91 138 292 341 534 1110
2022-09-18 07:30 2.17 141 3140 (2016) 25 (1954) 278 43 75 90 91 138 292 341 534 1110
2022-09-18 07:00 2.19 146 3140 (2016) 25 (1954) 278 43 75 90 91 138 292 341 534 1110
2022-09-18 06:30 2.18 144 3140 (2016) 25 (1954) 278 43 75 90 91 138 292 341 534 1110
2022-09-18 06:00 2.19 146 3140 (2016) 25 (1954) 278 43 75 90 91 138 292 341 534 1110
2022-09-18 05:30 2.19 146 3140 (2016) 25 (1954) 278 43 75 90 91 138 292 341 534 1110
2022-09-18 05:00 2.18 144 3140 (2016) 25 (1954) 278 43 75 90 91 138 292 341 534 1110
2022-09-18 04:30 2.18 144 3140 (2016) 25 (1954) 278 43 75 90 91 138 292 341 534 1110
2022-09-18 04:00 2.19 146 3140 (2016) 25 (1954) 278 43 75 90 91 138 292 341 534 1110
2022-09-18 03:30 2.19 146 3140 (2016) 25 (1954) 278 43 75 90 91 138 292 341 534 1110
2022-09-18 03:00 2.18 144 3140 (2016) 25 (1954) 278 43 75 90 91 138 292 341 534 1110
2022-09-18 02:30 2.18 144 3140 (2016) 25 (1954) 278 43 75 90 91 138 292 341 534 1110
2022-09-18 02:00 2.20 148 3140 (2016) 25 (1954) 278 43 75 90 91 138 292 341 534 1110
2022-09-18 01:30 2.18 144 3140 (2016) 25 (1954) 278 43 75 90 91 138 292 341 534 1110
2022-09-18 01:00 2.19 146 3140 (2016) 25 (1954) 278 43 75 90 91 138 292 341 534 1110
2022-09-18 00:30 2.20 148 3140 (2016) 25 (1954) 278 43 75 90 91 138 292 341 534 1110
2022-09-18 00:00 2.20 148 3140 (2016) 25 (1954) 278 43 75 90 91 138 292 341 534 1110

A total of 379 rows are displayed for years 1949 through 2020.